NCAR-RAP Real-Time Weather Data

Output produced by METARs form (24 April 2018  16:16 UTC)
found at http://weather.rap.ucar.edu/surface/
 
RJOT 241225Z 26003KT 240V310 2500 SHRA BR FEW001 SCT004 BKN009 18/18 Q1004 RMK 1ST001 3ST004 5ST009 A2965
RJOT 241222Z 25003KT 3000 SHRA BR FEW001 SCT005 BKN010 18/18 Q1004 RMK 1ST001 3ST005 5ST010 A2965
RJOT 241211Z 24004KT 4000 SHRA BR FEW001 SCT010 BKN020 18/18 Q1004 RMK 1ST001 3CU010 5CU020 A2966
RJOT 241200Z 26003KT 4000 -SHRA BR FEW001 SCT050 BKN080 18/18 Q1004
RJOT 241100Z 15005KT 120V190 9999 -SHRA FEW002 SCT080 BKN110 18/17 Q1003
RJOT 241000Z 12003KT 080V160 9999 PRFG FEW000 SCT080 BKN100 18/18 Q1003
RJOT 240900Z 09004KT 9999 -SHRA FEW002 SCT070 BKN090 18/18 Q1003
RJOT 240800Z 07003KT 010V120 9999 -SHRA FEW002 SCT030 BKN090 18/18 Q1004
RJOT 240700Z 05004KT 360V080 9999 -SHRA FEW002 SCT030 BKN090 19/17 Q1005
RJOT 240600Z VRB02KT 9999 -SHRA FEW002 SCT030 BKN090 19/17 Q1005
RJOT 240500Z VRB02KT 9999 VCSH FEW005 SCT045 BKN100 20/17 Q1006
RJOT 240400Z 06006KT 9999 FEW003 SCT045 BKN100 19/18 Q1007
RJOT 240300Z 07007KT 9999 FEW000 SCT040 BKN100 18/17 Q1008
RJOT 240248Z VRB05KT 5000 -SHRA BR FEW000 SCT040 BKN100 18/17 Q1008 RMK 1ST000 4CU040 5AC100 A2978
RJOT 240238Z 03004KT 330V060 3500 -SHRA BR FEW000 SCT003 BKN040 17/17 Q1008 RMK 1ST000 3ST003 5CU040 A2979
RJOT 240200Z 02003KT 340V070 3000 -RA BR FEW000 SCT003 BKN050 17/16 Q1009
RJOT 240100Z 06004KT 350V120 3000 -RA BR FEW000 SCT005 BKN080 16/16 Q1010
RJOT 240000Z 06004KT 350V080 4000 -RA BR FEW000 SCT040 BKN080 16/16 Q1010
RJOT 232300Z 06003KT 4000 -RA BR FEW000 SCT040 BKN080 16/15 Q1011
RJOT 232244Z 07003KT 4500 -RA BR FEW000 SCT040 BKN080 16/15 Q1011 RMK 1ST000 4SC040 6AC080 A2987 9999S-SW
RJOT 232200Z 12002KT 9999 -RA FEW005 SCT040 BKN100 16/15 Q1012
RJOT 232120Z VRB02KT 9999 -RA FEW005 SCT050 BKN100 16/15 Q1012 RMK 1ST005 3SC050 5AC100 A2989
RJOT 231200Z 14004KT 9999 FEW050 SCT080 BKN120 18/14 Q1016
RJOT 231100Z 13004KT 9999 SCT040 BKN120 19/14 Q1016
RJOT 231000Z 15003KT 9999 VCSH SCT040 BKN120 19/14 Q1016
RJOT 230900Z VRB02KT 9999 SCT040 BKN120 19/13 Q1015
RJOT 230800Z 09004KT 9999 FEW035 SCT050 BKN120 20/12 Q1015
RJOT 230700Z 08006KT 040V110 9999 FEW035 SCT120 BKN150 20/12 Q1015
RJOT 230600Z 06007KT 030V120 9999 FEW025 SCT035 BKN160 21/13 Q1016
RJOT 230500Z 07008KT 9999 FEW025 SCT035 BKN180 21/13 Q1016
RJOT 230400Z 02005KT 330V070 9999 FEW025 BKN035 22/14 Q1016
RJOT 230300Z 05006KT 350V090 9999 FEW025 BKN035 23/14 Q1017
RJOT 230200Z 01004KT 290V090 9999 FEW025 BKN035 21/12 Q1017
RJOT 230100Z VRB04KT 9999 FEW025 BKN/// 20/13 Q1018
RJOT 230000Z 01005KT 9999 FEW030 BKN/// 19/13 Q1018
RJOT 222300Z VRB01KT 9999 FEW030 SCT/// 18/12 Q1019
RJOT 222200Z 14005KT 9999 FEW030 15/12 Q1019
RJOT 222120Z 14007KT 9999 FEW030 13/11 Q1019 RMK 1CU030 A3009
RJOT 221200Z 17005KT 150V210 CAVOK 17/11 Q1018
RJOT 221100Z 16005KT 140V200 CAVOK 18/11 Q1017
RJOT 221000Z VRB02KT CAVOK 19/11 Q1017
RJOT 220900Z 08004KT CAVOK 22/11 Q1017
RJOT 220800Z 07006KT 020V100 CAVOK 24/10 Q1017
RJOT 220700Z 06005KT 330V120 CAVOK 25/09 Q1017
RJOT 220600Z 03008KT 360V060 CAVOK 25/11 Q1017
RJOT 220500Z 04006KT 350V140 CAVOK 25/09 Q1018